Time;durP1;ratioP1;P1;durP2;ratioP2;P2;SDS_P1;SDS_P2;PMS_P1;PMS_P2;Temp;Humidity;BMP_temperature;BMP_pressure;BME280_temperature;BME280_humidity;BME280_pressure;Samples;Min_cycle;Max_cycle;Signal;HPM_P1;HPM_P2
2023/10/13 00:01:23;;;;;;;;;;;;;;;13.68;52.00;100189.66;3170387;28;19931;-64
2023/10/13 00:02:54;;;;;;;;;;;;;;;13.65;52.43;100195.88;3177814;28;20415;-63
2023/10/13 00:04:25;;;;;;;;;;;;;;;13.65;52.29;100187.19;3183084;28;19965;-63
2023/10/13 00:06:00;;;;;;;;;;;;;;;13.64;52.32;100190.75;3182637;28;19927;-64
2023/10/13 00:07:31;;;;;;;;;;;;;;;13.67;52.29;100193.22;3182601;28;19953;-63
2023/10/13 00:09:04;;;;;;;;;;;;;;;13.64;52.38;100193.38;3182701;28;19930;-64
2023/10/13 00:10:34;;;;;;;;;;;;;;;13.61;52.18;100190.91;3176142;28;19932;-64
2023/10/13 00:12:09;;;;;;;;;;;;;;;13.59;52.51;100192.75;3182679;28;20010;-64
2023/10/13 00:13:43;;;;;;;;;;;;;;;13.60;52.24;100189.19;3182867;28;20365;-63
2023/10/13 00:15:15;;;;;;;;;;;;;;;13.58;52.35;100194.53;3182283;28;20085;-64
2023/10/13 00:17:00;;;;;;;;;;;;;;;13.57;52.51;100191.97;3182679;28;19946;-64
2023/10/13 00:18:33;;;;;;;;;;;;;;;13.56;52.40;100182.44;3182670;28;20000;-63
2023/10/13 00:20:12;;;;;;;;;;;;;;;13.56;52.26;100188.50;3182403;28;20087;-63
2023/10/13 00:21:45;;;;;;;;;;;;;;;13.57;52.08;100177.13;3182875;28;19980;-63
2023/10/13 00:23:20;;;;;;;;;;;;;;;13.60;52.27;100181.34;3174288;28;19935;-63
2023/10/13 00:25:03;;;;;;;;;;;;;;;13.60;52.17;100176.94;3171310;28;20535;-64
2023/10/13 00:26:36;;;;;;;;;;;;;;;13.61;52.23;100167.34;3182178;28;20180;-64
2023/10/13 00:28:08;;;;;;;;;;;;;;;13.63;51.99;100173.34;3179820;28;19928;-64
2023/10/13 00:29:40;;;;;;;;;;;;;;;13.64;51.94;100175.88;3182521;28;20366;-64
2023/10/13 00:31:12;;;;;;;;;;;;;;;13.68;51.77;100175.72;3172027;28;19930;-64
2023/10/13 00:32:44;;;;;;;;;;;;;;;13.68;52.05;100180.97;3182837;28;20423;-64
2023/10/13 00:34:19;;;;;;;;;;;;;;;13.65;51.75;100182.81;3182656;28;19953;-63
2023/10/13 00:35:51;;;;;;;;;;;;;;;13.61;52.14;100180.44;3180305;28;20065;-63
2023/10/13 00:37:29;;;;;;;;;;;;;;;13.59;52.15;100182.28;3181383;28;19927;-64
2023/10/13 00:38:59;;;;;;;;;;;;;;;13.58;52.13;100177.97;3182650;28;19969;-63
2023/10/13 00:40:43;;;;;;;;;;;;;;;13.60;52.23;100176.94;3171692;28;19938;-64
2023/10/13 00:42:24;;;;;;;;;;;;;;;13.59;51.88;100172.66;3181964;28;20341;-63
2023/10/13 00:44:08;;;;;;;;;;;;;;;13.60;52.02;100170.88;3182845;28;20462;-63
2023/10/13 00:45:40;;;;;;;;;;;;;;;13.60;52.09;100173.50;3163156;28;20465;-63
2023/10/13 00:47:23;;;;;;;;;;;;;;;13.59;52.05;100166.59;3182109;28;19947;-63
2023/10/13 00:48:55;;;;;;;;;;;;;;;13.58;51.99;100164.91;3182548;28;19932;-63
2023/10/13 00:50:26;;;;;;;;;;;;;;;13.58;52.34;100170.13;3182561;28;19923;-63
2023/10/13 00:51:58;;;;;;;;;;;;;;;13.58;52.33;100164.91;3182264;28;19984;-63
2023/10/13 00:53:33;;;;;;;;;;;;;;;13.56;52.24;100162.34;3166190;28;19924;-62
2023/10/13 00:55:04;;;;;;;;;;;;;;;13.55;52.32;100158.06;3168588;28;20312;-63
2023/10/13 00:56:40;;;;;;;;;;;;;;;13.55;52.27;100163.28;3176191;28;19939;-63
2023/10/13 00:58:12;;;;;;;;;;;;;;;13.55;52.33;100165.91;3182612;28;19946;-61
2023/10/13 00:59:47;;;;;;;;;;;;;;;13.54;52.39;100163.34;3182295;28;19979;-61
2023/10/13 01:01:21;;;;;;;;;;;;;;;13.54;52.21;100164.19;3171319;28;19938;-61
2023/10/13 01:02:55;;;;;;;;;;;;;;;13.56;52.40;100164.97;3176092;28;19924;-61
2023/10/13 01:04:31;;;;;;;;;;;;;;;13.54;51.99;100150.25;3182460;27;20489;-61
2023/10/13 01:06:03;;;;;;;;;;;;;;;13.57;52.23;100163.19;3181412;27;19996;-62
2023/10/13 01:07:37;;;;;;;;;;;;;;;13.53;52.15;100157.28;3178948;27;20258;-62
2023/10/13 01:09:13;;;;;;;;;;;;;;;13.45;52.85;100155.97;3184402;27;19927;-62
2023/10/13 01:10:44;;;;;;;;;;;;;;;13.35;53.16;100158.22;3179365;27;19932;-62
2023/10/13 01:12:15;;;;;;;;;;;;;;;13.23;53.71;100153.59;3184812;27;20079;-62
2023/10/13 01:13:50;;;;;;;;;;;;;;;13.20;53.84;100159.81;3184473;27;20022;-62
2023/10/13 01:15:22;;;;;;;;;;;;;;;13.12;53.90;100165.41;3181108;27;19924;-62
2023/10/13 01:16:55;;;;;;;;;;;;;;;13.04;54.46;100164.94;3175276;27;19945;-62
2023/10/13 01:18:28;;;;;;;;;;;;;;;12.93;55.13;100165.50;3183817;27;20018;-62
2023/10/13 01:19:59;;;;;;;;;;;;;;;12.89;54.86;100163.94;3184760;27;19927;-62
2023/10/13 01:21:32;;;;;;;;;;;;;;;12.87;54.99;100164.94;3184636;27;19927;-63
2023/10/13 01:23:10;;;;;;;;;;;;;;;12.87;54.97;100162.34;3179649;27;19924;-63
2023/10/13 01:24:42;;;;;;;;;;;;;;;12.90;54.63;100160.41;3165146;27;19924;-63
2023/10/13 01:26:16;;;;;;;;;;;;;;;12.93;54.43;100152.41;3172449;27;20387;-63
2023/10/13 01:27:48;;;;;;;;;;;;;;;12.98;54.36;100158.28;3159229;28;19936;-63
2023/10/13 01:29:28;;;;;;;;;;;;;;;13.00;54.41;100149.50;3175517;27;20023;-63
2023/10/13 01:30:59;;;;;;;;;;;;;;;13.02;54.05;100152.91;3173997;27;20678;-63
2023/10/13 01:32:31;;;;;;;;;;;;;;;13.04;53.85;100157.09;3182585;27;19927;-62
2023/10/13 01:34:01;;;;;;;;;;;;;;;13.05;53.88;100156.19;3184723;27;20257;-62
2023/10/13 01:35:36;;;;;;;;;;;;;;;13.07;54.01;100158.72;3184142;27;19927;-62
2023/10/13 01:37:10;;;;;;;;;;;;;;;13.09;53.73;100156.88;3177249;27;19923;-62
2023/10/13 01:38:42;;;;;;;;;;;;;;;13.08;53.87;100157.81;3184610;27;19958;-63
2023/10/13 01:40:18;;;;;;;;;;;;;;;13.07;53.99;100161.34;3184257;27;19923;-63
2023/10/13 01:41:55;;;;;;;;;;;;;;;13.07;53.70;100169.19;3184150;27;19923;-63
2023/10/13 01:43:26;;;;;;;;;;;;;;;13.06;53.74;100168.34;3184419;27;19998;-62
2023/10/13 01:45:03;;;;;;;;;;;;;;;13.06;53.67;100163.09;3183629;27;19923;-63
2023/10/13 01:46:36;;;;;;;;;;;;;;;13.04;53.93;100159.72;3177658;27;19946;-63
2023/10/13 01:48:08;;;;;;;;;;;;;;;13.03;53.95;100154.56;3183961;27;19947;-63
2023/10/13 01:49:46;;;;;;;;;;;;;;;13.02;53.60;100156.34;3184139;27;19923;-63
2023/10/13 01:51:20;;;;;;;;;;;;;;;13.01;53.82;100156.41;3183882;27;19923;-64
2023/10/13 01:52:59;;;;;;;;;;;;;;;12.98;53.83;100168.72;3180792;27;20010;-64
2023/10/13 01:54:32;;;;;;;;;;;;;;;12.92;54.10;100161.16;3172897;27;19946;-63
2023/10/13 01:56:05;;;;;;;;;;;;;;;12.87;54.29;100154.50;3169258;27;19930;-64
2023/10/13 01:57:37;;;;;;;;;;;;;;;12.82;54.40;100159.09;3184380;27;19927;-64
2023/10/13 01:59:09;;;;;;;;;;;;;;;12.77;54.95;100151.47;3184289;27;19924;-64
2023/10/13 02:00:41;;;;;;;;;;;;;;;12.75;54.92;100151.56;3177620;27;19928;-64
2023/10/13 02:02:14;;;;;;;;;;;;;;;12.77;54.73;100150.63;3176877;27;19931;-64
2023/10/13 02:03:47;;;;;;;;;;;;;;;12.80;54.53;100150.47;3179088;27;19932;-64
2023/10/13 02:05:18;;;;;;;;;;;;;;;12.83;54.34;100150.31;3184509;27;20313;-63
2023/10/13 02:06:52;;;;;;;;;;;;;;;12.87;54.37;100146.66;3184137;27;19934;-64
2023/10/13 02:08:23;;;;;;;;;;;;;;;12.89;54.26;100145.63;3184110;27;19931;-63
2023/10/13 02:09:55;;;;;;;;;;;;;;;12.91;54.39;100142.97;3179763;27;19970;-63
2023/10/13 02:11:27;;;;;;;;;;;;;;;12.91;54.15;100145.56;3183514;27;19954;-63
2023/10/13 02:12:57;;;;;;;;;;;;;;;12.91;54.07;100146.41;3183821;27;19923;-64
2023/10/13 02:14:32;;;;;;;;;;;;;;;12.90;54.29;100142.13;3184066;27;19923;-63
2023/10/13 02:16:04;;;;;;;;;;;;;;;12.89;54.12;100140.41;3173820;27;19923;-63
2023/10/13 02:17:41;;;;;;;;;;;;;;;12.88;54.20;100136.09;3175964;27;19927;-64
2023/10/13 02:19:15;;;;;;;;;;;;;;;12.88;54.47;100137.88;3183656;27;19942;-63
2023/10/13 02:20:46;;;;;;;;;;;;;;;12.87;54.28;100146.66;3184024;27;20364;-63
2023/10/13 02:22:25;;;;;;;;;;;;;;;12.84;54.26;100150.25;3183895;27;19938;-62
2023/10/13 02:24:00;;;;;;;;;;;;;;;12.85;54.40;100157.16;3171002;27;19924;-63
2023/10/13 02:25:35;;;;;;;;;;;;;;;12.73;54.46;100132.47;3166822;27;20376;-63
2023/10/13 02:27:13;;;;;;;;;;;;;;;12.83;54.53;100153.78;3178192;27;19927;-62
2023/10/13 02:28:44;;;;;;;;;;;;;;;12.83;54.23;100156.38;3184008;27;19931;-62
2023/10/13 02:30:14;;;;;;;;;;;;;;;12.83;54.21;100150.31;3179189;27;19927;-63
2023/10/13 02:31:54;;;;;;;;;;;;;;;12.80;54.67;100155.69;3180850;27;19927;-62
2023/10/13 02:33:29;;;;;;;;;;;;;;;12.77;54.66;100161.91;3183734;27;19941;-63
2023/10/13 02:35:07;;;;;;;;;;;;;;;12.77;54.50;100161.91;3183899;27;20416;-62
2023/10/13 02:36:46;;;;;;;;;;;;;;;12.79;54.65;100159.25;3180053;27;20428;-63
2023/10/13 02:38:26;;;;;;;;;;;;;;;12.78;54.69;100155.78;3183475;27;19923;-62
2023/10/13 02:39:58;;;;;;;;;;;;;;;12.71;54.80;100157.84;3177912;27;20072;-63
2023/10/13 02:41:32;;;;;;;;;;;;;;;12.62;55.53;100157.44;3177000;27;19924;-63
2023/10/13 02:43:04;;;;;;;;;;;;;;;12.51;55.64;100156.19;3183622;27;19923;-63
2023/10/13 02:44:38;;;;;;;;;;;;;;;12.49;55.84;100151.97;3183620;27;20146;-62
2023/10/13 02:46:09;;;;;;;;;;;;;;;12.45;55.66;100147.78;3180144;27;20456;-63
2023/10/13 02:47:43;;;;;;;;;;;;;;;12.44;55.84;100156.53;3183812;27;19927;-62
2023/10/13 02:49:19;;;;;;;;;;;;;;;12.40;55.87;100150.63;3183401;27;20385;-62
2023/10/13 02:50:55;;;;;;;;;;;;;;;12.34;56.06;100144.84;3183246;27;19923;-62
2023/10/13 02:52:26;;;;;;;;;;;;;;;12.25;56.45;100144.34;3183298;27;20038;-63
2023/10/13 02:54:02;;;;;;;;;;;;;;;12.20;56.73;100151.53;3170031;27;19928;-62
2023/10/13 02:55:33;;;;;;;;;;;;;;;12.15;57.27;100150.06;3168775;27;19924;-62
2023/10/13 02:57:05;;;;;;;;;;;;;;;12.02;57.35;100142.78;3183054;27;19931;-62
2023/10/13 02:58:39;;;;;;;;;;;;;;;12.03;57.68;100151.47;3179998;27;19935;-62
2023/10/13 03:00:12;;;;;;;;;;;;;;;12.00;57.73;100152.44;3157929;27;20234;-62
2023/10/13 03:01:44;;;;;;;;;;;;;;;11.98;57.73;100151.69;3166653;27;19928;-62
2023/10/13 03:03:18;;;;;;;;;;;;;;;11.93;57.98;100161.50;3177096;27;19927;-62
2023/10/13 03:04:50;;;;;;;;;;;;;;;11.89;58.07;100152.13;3166684;27;20320;-62
2023/10/13 03:06:23;;;;;;;;;;;;;;;11.86;58.29;100157.47;3175698;27;19938;-62
2023/10/13 03:07:55;;;;;;;;;;;;;;;11.82;58.41;100154.09;3178363;27;20332;-62
2023/10/13 03:09:25;;;;;;;;;;;;;;;11.79;58.78;100150.78;3177251;27;19931;-63
2023/10/13 03:10:56;;;;;;;;;;;;;;;11.76;58.93;100151.75;3173517;27;19983;-62
2023/10/13 03:12:32;;;;;;;;;;;;;;;11.72;59.07;100142.38;3178003;27;20348;-62
2023/10/13 03:14:06;;;;;;;;;;;;;;;11.70;59.26;100146.81;3178018;27;19980;-62
2023/10/13 03:15:37;;;;;;;;;;;;;;;11.67;59.12;100143.50;3172048;27;20601;-62
2023/10/13 03:17:13;;;;;;;;;;;;;;;11.64;59.24;100139.25;3171235;27;19928;-62
2023/10/13 03:18:53;;;;;;;;;;;;;;;11.63;59.27;100145.41;3178003;27;20413;-62
2023/10/13 03:20:31;;;;;;;;;;;;;;;11.61;59.43;100142.84;3178085;27;20004;-63
2023/10/13 03:22:09;;;;;;;;;;;;;;;11.61;59.42;100142.84;3177789;27;20293;-62
2023/10/13 03:23:45;;;;;;;;;;;;;;;11.62;59.34;100138.47;3178049;27;19948;-62
2023/10/13 03:25:23;;;;;;;;;;;;;;;11.61;59.04;100142.00;3174972;27;19931;-62
2023/10/13 03:26:54;;;;;;;;;;;;;;;11.65;58.83;100140.09;3173710;27;19927;-62
2023/10/13 03:28:33;;;;;;;;;;;;;;;11.68;58.63;100142.56;3166155;27;20386;-63
2023/10/13 03:30:10;;;;;;;;;;;;;;;11.71;58.75;100129.41;3173327;27;19931;-63
2023/10/13 03:31:45;;;;;;;;;;;;;;;11.76;58.38;100127.44;3169380;27;19928;-63
2023/10/13 03:33:25;;;;;;;;;;;;;;;11.77;58.08;100126.50;3177824;27;20471;-63
2023/10/13 03:35:11;;;;;;;;;;;;;;;11.76;58.45;100124.81;3177887;27;19928;-63
2023/10/13 03:36:57;;;;;;;;;;;;;;;11.75;58.52;100133.59;3173716;27;19934;-63
2023/10/13 03:38:28;;;;;;;;;;;;;;;11.76;58.15;100130.88;3177658;27;20446;-63
2023/10/13 03:39:59;;;;;;;;;;;;;;;11.80;58.07;100123.75;3177744;27;19927;-63
2023/10/13 03:41:31;;;;;;;;;;;;;;;11.83;58.08;100121.88;3177234;27;19927;-64
2023/10/13 03:43:04;;;;;;;;;;;;;;;11.86;57.72;100120.94;3177853;27;20024;-63
2023/10/13 03:44:38;;;;;;;;;;;;;;;11.88;57.64;100116.47;3177496;27;19931;-63
2023/10/13 03:46:11;;;;;;;;;;;;;;;11.89;57.67;100118.19;3161604;27;20394;-63
2023/10/13 03:47:45;;;;;;;;;;;;;;;11.88;57.41;100115.63;3152692;28;20021;-64
2023/10/13 03:49:21;;;;;;;;;;;;;;;11.88;57.69;100126.06;3152342;28;20273;-63
2023/10/13 03:51:01;;;;;;;;;;;;;;;11.87;57.37;100114.78;3152450;28;20385;-63
2023/10/13 03:52:35;;;;;;;;;;;;;;;11.88;57.37;100116.47;3152222;28;19985;-63
2023/10/13 03:54:08;;;;;;;;;;;;;;;11.88;57.48;100119.09;3146059;28;19943;-63
2023/10/13 03:55:39;;;;;;;;;;;;;;;11.91;57.50;100118.94;3136067;28;20389;-63
2023/10/13 03:57:12;;;;;;;;;;;;;;;11.94;57.30;100112.75;3152117;28;19935;-64
2023/10/13 03:58:46;;;;;;;;;;;;;;;11.94;57.35;100113.59;3138872;28;19950;-65
2023/10/13 04:00:23;;;;;;;;;;;;;;;11.97;57.43;100115.22;3146955;28;19971;-64
2023/10/13 04:01:58;;;;;;;;;;;;;;;11.98;57.02;100115.16;3141767;28;20396;-64
2023/10/13 04:03:35;;;;;;;;;;;;;;;11.99;57.07;100116.84;3147975;28;20408;-65
2023/10/13 04:05:09;;;;;;;;;;;;;;;12.03;56.93;100126.22;3146146;28;20044;-66
2023/10/13 04:06:58;;;;;;;;;;;;;;;12.04;56.76;100125.31;3149329;28;19974;-64
2023/10/13 04:14:24;;;;;;;;;;;;;;;12.12;56.86;100138.00;3114240;28;19929;-67
2023/10/13 04:16:14;;;;;;;;;;;;;;;12.16;56.76;100123.06;3145383;28;19944;-67
2023/10/13 04:17:47;;;;;;;;;;;;;;;12.20;56.59;100135.88;3147751;28;19934;-63
2023/10/13 04:19:26;;;;;;;;;;;;;;;12.21;56.55;100121.06;3152087;28;20369;-62
2023/10/13 04:21:18;;;;;;;;;;;;;;;12.18;56.59;100116.81;3152165;28;19928;-63
2023/10/13 04:26:36;;;;;;;;;;;;;;;12.22;57.17;100133.22;3143454;28;19994;-63
2023/10/13 04:28:15;;;;;;;;;;;;;;;12.22;57.15;100134.06;3129766;28;20444;-63
2023/10/13 04:29:48;;;;;;;;;;;;;;;12.22;57.05;100141.03;3137718;28;19936;-60
2023/10/13 04:33:35;;;;;;;;;;;;;;;12.24;57.26;100144.41;3151083;28;19974;-62
2023/10/13 04:35:10;;;;;;;;;;;;;;;12.18;57.24;100147.31;3152104;28;19932;-61
2023/10/13 04:36:46;;;;;;;;;;;;;;;12.18;57.45;100142.09;3147467;28;20286;-60
2023/10/13 04:38:20;;;;;;;;;;;;;;;12.16;57.30;100151.78;3152652;28;20357;-61
2023/10/13 04:39:57;;;;;;;;;;;;;;;12.14;57.43;100158.81;3154270;28;19928;-62
2023/10/13 04:41:37;;;;;;;;;;;;;;;12.12;57.65;100155.44;3154450;28;20531;-62
2023/10/13 04:43:32;;;;;;;;;;;;;;;12.13;57.46;100155.38;3149052;28;19932;-62
2023/10/13 04:45:16;;;;;;;;;;;;;;;12.14;57.36;100157.06;3146554;28;20453;-64
2023/10/13 04:47:07;;;;;;;;;;;;;;;12.20;57.08;100159.38;3161932;28;19932;-65
2023/10/13 04:48:38;;;;;;;;;;;;;;;12.23;57.15;100140.13;3162012;28;19928;-62
2023/10/13 04:50:22;;;;;;;;;;;;;;;12.23;57.15;100154.00;3156600;28;20110;-62
2023/10/13 04:51:58;;;;;;;;;;;;;;;12.24;56.79;100153.09;3159332;28;19963;-63
2023/10/13 04:53:33;;;;;;;;;;;;;;;12.25;57.11;100146.97;3165899;28;19927;-67
2023/10/13 04:55:17;;;;;;;;;;;;;;;12.26;56.72;100150.41;3155836;28;19928;-66
2023/10/13 04:57:20;;;;;;;;;;;;;;;12.27;56.88;100162.53;3166689;28;19939;-65
2023/10/13 05:01:23;;;;;;;;;;;;;;;12.22;56.96;100159.31;3122196;28;19936;-64
2023/10/13 05:03:17;;;;;;;;;;;;;;;12.20;57.08;100150.69;3158419;28;19928;-64
2023/10/13 05:05:21;;;;;;;;;;;;;;;12.15;57.35;100155.28;3156884;28;20375;-65
2023/10/13 05:45:24;;;;;;;;;;;;;;;12.40;56.92;100152.41;3178111;27;19974;-63
2023/10/13 05:49:09;;;;;;;;;;;;;;;12.55;56.81;100158.66;3160650;27;20396;-62
2023/10/13 06:29:21;;;;;;;;;;;;;;;15.59;54.01;100196.53;3173310;27;19927;-65
2023/10/13 06:30:56;;;;;;;;;;;;;;;15.93;53.61;100197.13;3173215;27;19924;-68
2023/10/13 06:32:28;;;;;;;;;;;;;;;16.19;53.35;100202.59;3181875;27;19923;-67
2023/10/13 06:34:03;;;;;;;;;;;;;;;16.46;53.06;100189.50;3183668;27;19980;-71
2023/10/13 06:35:34;;;;;;;;;;;;;;;16.87;52.93;100193.91;3173385;27;19924;-70
2023/10/13 06:37:22;;;;;;;;;;;;;;;17.26;52.43;100193.06;3181968;27;19954;-69
2023/10/13 06:39:20;;;;;;;;;;;;;;;17.73;52.10;100189.00;3183741;27;19939;-70
2023/10/13 06:40:50;;;;;;;;;;;;;;;18.26;51.45;100195.00;3160787;27;20034;-70
2023/10/13 06:42:22;;;;;;;;;;;;;;;18.58;50.87;100191.88;3183754;27;19923;-70
2023/10/13 06:43:59;;;;;;;;;;;;;;;18.93;50.53;100181.41;3182981;27;19931;-70
2023/10/13 06:45:35;;;;;;;;;;;;;;;19.23;49.58;100196.75;3179078;27;19924;-70
2023/10/13 06:47:07;;;;;;;;;;;;;;;19.50;49.55;100185.06;3183100;27;20491;-68
2023/10/13 06:48:40;;;;;;;;;;;;;;;19.88;49.08;100183.94;3183733;27;20297;-69
2023/10/13 06:50:16;;;;;;;;;;;;;;;20.11;48.49;100185.59;3183417;27;19931;-71
2023/10/13 06:51:48;;;;;;;;;;;;;;;20.40;47.89;100187.75;3179434;27;19931;-67
2023/10/13 06:53:18;;;;;;;;;;;;;;;20.43;46.88;100187.50;3170204;27;20977;-69
2023/10/13 06:55:09;;;;;;;;;;;;;;;20.29;46.37;100179.81;3177413;27;19935;-68
2023/10/13 06:57:10;;;;;;;;;;;;;;;20.21;46.11;100183.09;3173811;27;19934;-66
2023/10/13 06:59:20;;;;;;;;;;;;;;;20.43;46.09;100179.56;3161791;27;19924;-66
2023/10/13 07:01:21;;;;;;;;;;;;;;;20.48;45.46;100177.41;3171306;27;19924;-66
2023/10/13 07:02:52;;;;;;;;;;;;;;;20.83;45.29;100176.38;3179880;27;20388;-69
2023/10/13 07:04:24;;;;;;;;;;;;;;;21.28;44.90;100182.28;3181802;27;20331;-68
2023/10/13 07:05:58;;;;;;;;;;;;;;;21.79;44.48;100175.38;3173937;27;19949;-69
2023/10/13 07:07:30;;;;;;;;;;;;;;;22.29;43.52;100180.75;3163692;27;19924;-69
2023/10/13 07:09:04;;;;;;;;;;;;;;;22.54;42.90;100179.44;3169211;27;19924;-72
2023/10/13 07:10:44;;;;;;;;;;;;;;;23.00;42.76;100174.47;3179534;27;20281;-70
2023/10/13 07:12:16;;;;;;;;;;;;;;;23.39;42.08;100173.44;3182893;27;19992;-70
2023/10/13 07:13:52;;;;;;;;;;;;;;;23.83;41.48;100179.09;3183117;27;19983;-69
2023/10/13 07:15:27;;;;;;;;;;;;;;;24.30;40.39;100179.03;3179067;27;19924;-65
2023/10/13 07:17:01;;;;;;;;;;;;;;;24.37;39.67;100181.09;3178002;27;20340;-65
2023/10/13 07:18:36;;;;;;;;;;;;;;;24.45;39.76;100186.53;3179795;27;20384;-65
2023/10/13 07:20:14;;;;;;;;;;;;;;;24.67;39.78;100186.13;3183679;27;20007;-65
2023/10/13 07:21:47;;;;;;;;;;;;;;;25.10;39.32;100184.50;3182869;27;19927;-63
2023/10/13 07:23:17;;;;;;;;;;;;;;;25.51;38.40;100179.53;3182759;27;20406;-67
2023/10/13 07:24:49;;;;;;;;;;;;;;;25.86;38.21;100183.13;3183117;27;19927;-67
2023/10/13 07:26:23;;;;;;;;;;;;;;;25.87;36.69;100182.94;3182472;27;20407;-67
2023/10/13 07:27:56;;;;;;;;;;;;;;;25.76;36.79;100179.66;3180086;27;19942;-67
2023/10/13 07:29:27;;;;;;;;;;;;;;;25.72;36.88;100179.16;3167031;27;20022;-67
2023/10/13 07:31:12;;;;;;;;;;;;;;;25.80;36.36;100178.38;3176834;27;20336;-66
2023/10/13 07:32:45;;;;;;;;;;;;;;;25.95;36.50;100179.47;3170037;27;19924;-67
2023/10/13 07:34:25;;;;;;;;;;;;;;;26.18;36.38;100179.75;3170556;28;20004;-70
2023/10/13 07:36:00;;;;;;;;;;;;;;;26.48;35.94;100175.69;3178402;27;19932;-65
2023/10/13 07:37:32;;;;;;;;;;;;;;;26.90;35.29;100172.09;3181230;27;19928;-66
2023/10/13 07:39:20;;;;;;;;;;;;;;;27.29;34.77;100170.63;3182965;27;19923;-67
2023/10/13 07:40:51;;;;;;;;;;;;;;;27.57;34.13;100174.59;3175345;27;20018;-67
2023/10/13 07:42:23;;;;;;;;;;;;;;;27.70;33.97;100176.75;3174727;27;19927;-66
2023/10/13 07:43:57;;;;;;;;;;;;;;;28.08;33.84;100168.97;3182813;27;19927;-65
2023/10/13 07:45:35;;;;;;;;;;;;;;;28.33;33.07;100175.00;3177486;27;19928;-67
2023/10/13 07:47:10;;;;;;;;;;;;;;;28.67;33.27;100179.22;3177046;27;19927;-66
2023/10/13 07:48:45;;;;;;;;;;;;;;;29.05;32.10;100166.75;3179793;27;19924;-66
2023/10/13 07:50:24;;;;;;;;;;;;;;;29.18;32.15;100175.00;3182657;27;19923;-65
2023/10/13 07:51:57;;;;;;;;;;;;;;;29.42;31.33;100171.25;3182763;27;19927;-65
2023/10/13 07:53:34;;;;;;;;;;;;;;;29.48;31.01;100173.19;3180197;27;19934;-65
2023/10/13 07:55:19;;;;;;;;;;;;;;;29.69;30.83;100160.94;3175823;27;19934;-65
2023/10/13 07:56:54;;;;;;;;;;;;;;;29.81;30.32;100169.38;3182397;27;20406;-65
2023/10/13 07:58:25;;;;;;;;;;;;;;;29.94;30.63;100169.56;3173856;27;20007;-65
2023/10/13 08:00:11;;;;;;;;;;;;;;;30.18;29.96;100170.28;3171627;28;19947;-65
2023/10/13 08:01:42;;;;;;;;;;;;;;;30.11;29.40;100168.34;3171631;28;20315;-65
2023/10/13 08:05:14;;;;;;;;;;;;;;;29.99;29.93;100177.88;3169964;28;20046;-66
2023/10/13 08:06:45;;;;;;;;;;;;;;;29.97;29.75;100168.34;3178523;28;19936;-67
2023/10/13 08:08:17;;;;;;;;;;;;;;;30.18;29.86;100168.41;3181394;28;20330;-66
2023/10/13 08:09:51;;;;;;;;;;;;;;;30.50;29.60;100166.34;3179180;28;19950;-66
2023/10/13 08:11:26;;;;;;;;;;;;;;;30.81;28.96;100160.69;3178617;28;19983;-67
2023/10/13 08:12:58;;;;;;;;;;;;;;;31.07;28.76;100165.47;3179830;27;20124;-63
2023/10/13 08:14:33;;;;;;;;;;;;;;;31.30;28.91;100167.09;3179241;27;19966;-67
2023/10/13 08:16:08;;;;;;;;;;;;;;;31.37;28.33;100168.00;3176656;27;19932;-68
2023/10/13 08:17:44;;;;;;;;;;;;;;;31.47;28.36;100166.66;3178845;27;19980;-67
2023/10/13 08:19:15;;;;;;;;;;;;;;;31.59;28.12;100161.56;3184986;27;20635;-65
2023/10/13 08:20:51;;;;;;;;;;;;;;;31.76;28.00;100161.22;3185280;27;19923;-67
2023/10/13 08:22:24;;;;;;;;;;;;;;;31.81;27.67;100161.47;3184417;27;19928;-67
2023/10/13 08:24:06;;;;;;;;;;;;;;;31.93;27.75;100155.31;3177817;27;19994;-68
2023/10/13 08:27:35;;;;;;;;;;;;;;;31.22;26.06;100150.06;3179398;27;19923;-66
2023/10/13 08:30:56;;;;;;;;;;;;;;;29.79;27.48;100152.63;3174223;27;19923;-68
2023/10/13 08:32:43;;;;;;;;;;;;;;;29.39;27.20;100143.97;3183387;27;19937;-68
2023/10/13 08:34:38;;;;;;;;;;;;;;;28.73;27.88;100136.47;3181917;27;20006;-68
2023/10/13 08:44:01;;;;;;;;;;;;;;;;;;;;;
2023/10/13 08:47:36;;;;;;;;;;;;;;;30.38;26.89;100123.84;3182336;27;20029;-70
2023/10/13 08:49:50;;;;;;;;;;;;;;;30.40;26.96;100120.94;3179413;27;19924;-70
2023/10/13 08:51:49;;;;;;;;;;;;;;;30.31;27.26;100127.47;3148930;27;19970;-71
2023/10/13 08:53:28;;;;;;;;;;;;;;;30.22;26.88;100128.59;3159858;28;20316;-70
2023/10/13 08:57:34;;;;;;;;;;;;;;;30.03;27.63;100120.09;3134390;28;19953;-71
2023/10/13 08:59:33;;;;;;;;;;;;;;;30.14;27.46;100119.63;3142573;28;19948;-69
2023/10/13 09:06:00;;;;;;;;;;;;;;;28.68;27.55;100117.41;3108354;28;20028;-68
2023/10/13 09:07:57;;;;;;;;;;;;;;;;;;;;;
2023/10/13 09:13:33;;;;;;;;;;;;;;;27.78;28.89;100114.34;3108391;28;19940;-67
2023/10/13 09:15:59;;;;;;;;;;;;;;;28.03;29.32;100112.41;3155390;28;19966;-65
2023/10/13 09:25:53;;;;;;;;;;;;;;;28.18;28.51;100101.78;3113151;28;20417;-74
2023/10/13 09:27:41;;;;;;;;;;;;;;;28.10;28.42;100108.00;3161097;27;19966;-68
2023/10/13 09:32:11;;;;;;;;;;;;;;;27.95;28.52;100107.94;3163777;27;20031;-70
2023/10/13 09:34:09;;;;;;;;;;;;;;;27.71;28.57;100108.84;3154346;28;20469;-68
2023/10/13 09:36:00;;;;;;;;;;;;;;;;;;;;;
2023/10/13 09:37:57;;;;;;;;;;;;;;;28.10;28.21;100114.22;3169719;27;19953;-66
2023/10/13 09:39:34;;;;;;;;;;;;;;;28.28;28.26;100113.13;3162053;27;19928;-68
2023/10/13 09:41:17;;;;;;;;;;;;;;;28.60;28.24;100100.53;3184262;27;20022;-68
2023/10/13 09:42:48;;;;;;;;;;;;;;;28.77;28.08;100102.09;3181638;27;20382;-67
2023/10/13 09:44:21;;;;;;;;;;;;;;;28.93;28.14;100106.47;3181416;27;19923;-66
2023/10/13 09:46:07;;;;;;;;;;;;;;;29.04;27.83;100103.38;3176313;27;19935;-67
2023/10/13 09:47:40;;;;;;;;;;;;;;;29.17;27.98;100100.94;3182487;27;19923;-67
2023/10/13 09:49:33;;;;;;;;;;;;;;;29.20;27.91;100094.38;3184016;27;20399;-66
2023/10/13 09:51:40;;;;;;;;;;;;;;;29.38;27.73;100094.00;3183416;27;19976;-66
2023/10/13 09:53:13;;;;;;;;;;;;;;;29.53;27.51;100094.84;3179749;27;19924;-66
2023/10/13 09:54:59;;;;;;;;;;;;;;;29.54;27.59;100098.34;3171612;27;20073;-70
2023/10/13 09:56:34;;;;;;;;;;;;;;;29.60;27.42;100093.06;3158782;28;19931;-66
2023/10/13 09:58:11;;;;;;;;;;;;;;;29.68;27.53;100089.50;3169479;28;20341;-66
2023/10/13 09:59:51;;;;;;;;;;;;;;;29.79;27.63;100091.72;3176147;27;20351;-65
2023/10/13 10:01:33;;;;;;;;;;;;;;;29.93;27.32;100087.31;3171652;27;19924;-65
2023/10/13 10:03:14;;;;;;;;;;;;;;;30.02;27.06;100080.81;3180901;27;20324;-65
2023/10/13 10:04:52;;;;;;;;;;;;;;;30.05;27.29;100080.47;3184091;27;20399;-66
2023/10/13 10:06:28;;;;;;;;;;;;;;;30.18;27.05;100081.63;3184062;27;19931;-64
2023/10/13 10:08:01;;;;;;;;;;;;;;;30.32;27.08;100072.72;3177855;27;19931;-64
2023/10/13 10:09:34;;;;;;;;;;;;;;;30.40;26.96;100072.59;3174202;27;20440;-68
2023/10/13 10:11:18;;;;;;;;;;;;;;;30.44;27.12;100071.19;3180618;27;19934;-66
2023/10/13 10:12:55;;;;;;;;;;;;;;;30.49;27.11;100068.75;3184156;27;20022;-66
2023/10/13 10:14:36;;;;;;;;;;;;;;;30.48;26.89;100068.94;3183477;27;19927;-66
2023/10/13 10:16:14;;;;;;;;;;;;;;;30.37;26.62;100072.97;3181885;27;20392;-65
2023/10/13 10:17:45;;;;;;;;;;;;;;;30.30;26.93;100069.41;3183339;27;19927;-67
2023/10/13 10:19:18;;;;;;;;;;;;;;;30.17;26.90;100056.59;3176930;27;19930;-70
2023/10/13 10:20:51;;;;;;;;;;;;;;;29.72;26.43;100057.75;3174396;27;19931;-70
2023/10/13 10:22:30;;;;;;;;;;;;;;;29.26;26.84;100056.09;3183486;27;20011;-68
2023/10/13 10:24:05;;;;;;;;;;;;;;;29.01;27.26;100050.09;3183849;27;19981;-67
2023/10/13 10:25:37;;;;;;;;;;;;;;;28.75;27.26;100051.38;3184227;27;20297;-68
2023/10/13 10:27:14;;;;;;;;;;;;;;;28.69;27.54;100057.44;3183631;27;20374;-67
2023/10/13 10:28:45;;;;;;;;;;;;;;;28.65;27.12;100053.44;3171067;27;19931;-67
2023/10/13 10:30:24;;;;;;;;;;;;;;;28.30;27.71;100041.47;3172056;27;19931;-67
2023/10/13 10:31:56;;;;;;;;;;;;;;;28.26;27.72;100045.53;3171675;27;19935;-66